西安 の空港の天気 - METARとTAF

西安咸陽国際空港 ( ZLXY / XIY ) - 中華人民共和国 陝西省西安市
飛行場実況気象(Metar)
観測時間06/23 09:00 CST (06/23 01:00 UTC)
風向・風速静穏 0m/s
視程5000m
天気現象煙霧
なし
気温27℃
湿度62%
気圧1006hPa
METARZLXY 230100Z 00000MPS 5000 HZ NSC 27/19 Q1006 NOSIG
過去の天気等 Google飛行場航空写真 Wunderground天気予報

過去48時間のMETAR

飛行場予報(TAF)
発表時間: 6/23 03:20 CST (6/22 19:20 UTC)
予報対象時間: 23日8時 CST ~ 24日8時 CST
風向・風速西 3m/s
視程5,000m
天気現象煙霧
なし
TAF ZLXY 221920Z 2300/2324 28003MPS 5000 HZ NSC TX35/2308Z TN20/2321Z